createdAt,value
2022-09-03T00:05:11.411Z,1.10
2022-09-03T00:10:30.287Z,1.20
2022-09-03T00:15:35.947Z,1.63
2022-09-03T00:20:41.415Z,1.23
2022-09-03T00:26:10.613Z,1.10
2022-09-03T00:31:24.013Z,1.30
2022-09-03T00:36:42.138Z,1.30
2022-09-03T00:42:08.354Z,1.15
2022-09-03T00:47:24.052Z,1.15
2022-09-03T00:52:35.192Z,1.20
2022-09-03T00:58:06.991Z,1.33
2022-09-03T01:03:24.057Z,1.10
2022-09-03T01:08:57.618Z,0.90
2022-09-03T01:14:14.301Z,0.98
2022-09-03T01:19:37.813Z,1.00
2022-09-03T01:25:32.065Z,1.10
2022-09-03T01:30:40.255Z,1.00
2022-09-03T01:36:25.975Z,0.90
2022-09-03T01:41:54.266Z,1.00
2022-09-03T01:47:08.775Z,1.08
2022-09-03T01:52:19.372Z,1.00
2022-09-03T01:57:45.963Z,1.00
2022-09-03T02:02:52.561Z,1.10
2022-09-03T02:08:01.906Z,1.10
2022-09-03T02:13:28.556Z,0.90
2022-09-03T02:18:36.720Z,0.77
2022-09-03T02:23:42.102Z,1.20
2022-09-03T02:28:43.956Z,0.98
2022-09-03T02:33:48.920Z,1.20
2022-09-03T02:38:50.989Z,0.88
2022-09-03T02:44:04.745Z,1.17
2022-09-03T02:49:06.951Z,0.88
2022-09-03T02:54:10.656Z,1.20
2022-09-03T02:59:12.126Z,0.82
2022-09-03T03:04:14.767Z,0.98
2022-09-03T03:09:17.304Z,0.90
2022-09-03T03:14:18.826Z,1.00
2022-09-03T03:19:20.354Z,1.00
2022-09-03T03:24:21.828Z,0.90
2022-09-03T03:29:25.064Z,1.00
2022-09-03T03:34:26.533Z,0.90
2022-09-03T03:39:28.446Z,1.00
2022-09-03T03:44:30.785Z,1.00
2022-09-03T03:49:32.590Z,0.98
2022-09-03T03:54:34.104Z,1.00
2022-09-03T03:59:35.598Z,1.02
2022-09-03T04:04:37.091Z,1.00
2022-09-03T04:09:38.968Z,1.23
2022-09-03T04:14:40.796Z,1.00
2022-09-03T04:19:42.294Z,1.10
2022-09-03T04:24:43.763Z,1.00
2022-09-03T04:29:45.233Z,0.70
2022-09-03T04:34:47.080Z,0.90
2022-09-03T04:39:48.766Z,1.05
2022-09-03T04:44:50.500Z,0.80
2022-09-03T04:49:54.006Z,0.70
2022-09-03T04:54:55.492Z,0.90
2022-09-03T04:59:56.987Z,1.23
2022-09-03T05:04:58.686Z,0.98
2022-09-03T05:10:00.456Z,0.88
2022-09-03T05:15:02.422Z,0.93
2022-09-03T05:20:04.183Z,1.00
2022-09-03T05:25:06.361Z,0.80
2022-09-03T05:30:08.189Z,0.70
2022-09-03T05:35:10.852Z,0.98
2022-09-03T05:40:12.630Z,0.80
2022-09-03T05:45:14.168Z,1.05
2022-09-03T05:50:15.659Z,0.75
2022-09-03T05:55:17.196Z,0.90
2022-09-03T06:00:22.040Z,0.77
2022-09-03T06:05:23.626Z,1.10
2022-09-03T06:10:29.248Z,0.82
2022-09-03T06:15:34.072Z,0.85
2022-09-03T06:20:37.381Z,1.25
2022-09-03T06:25:39.353Z,0.80
2022-09-03T06:30:43.758Z,1.15
2022-09-03T06:35:46.754Z,0.90
2022-09-03T06:40:53.079Z,0.80
2022-09-03T06:45:56.758Z,1.10
2022-09-03T06:51:01.234Z,1.02
2022-09-03T06:56:08.587Z,1.38
2022-09-03T07:01:16.109Z,0.98
2022-09-03T07:06:19.540Z,0.70
2022-09-03T07:11:27.518Z,4.07
2022-09-03T07:16:34.992Z,0.85
2022-09-03T07:21:36.941Z,0.98
2022-09-03T07:26:46.389Z,0.77
2022-09-03T07:31:51.633Z,0.80
2022-09-03T07:36:53.863Z,0.80
2022-09-03T07:41:57.696Z,0.80
2022-09-03T07:47:00.161Z,0.85
2022-09-03T07:52:02.991Z,0.85
2022-09-03T07:57:05.031Z,0.90
2022-09-03T08:02:07.346Z,5.85
2022-09-03T08:07:09.159Z,2.67
2022-09-03T08:12:10.664Z,1.50
2022-09-03T08:17:13.379Z,5.25
2022-09-03T08:22:15.078Z,9.65
2022-09-03T08:27:16.578Z,16.05
2022-09-03T08:32:18.753Z,10.73
2022-09-03T08:37:20.309Z,2.55
2022-09-03T08:42:33.135Z,1.70
2022-09-03T08:47:44.039Z,1.30
2022-09-03T08:52:50.753Z,1.55
2022-09-03T08:58:14.310Z,1.40
2022-09-03T09:03:42.822Z,1.10
2022-09-03T09:08:59.639Z,1.10
2022-09-03T09:14:27.064Z,1.25
2022-09-03T09:19:43.576Z,1.20
2022-09-03T09:24:47.635Z,1.30
2022-09-03T09:29:51.784Z,1.27
2022-09-03T09:34:54.847Z,1.23
2022-09-03T09:39:59.465Z,1.10
2022-09-03T09:45:10.032Z,0.98
2022-09-03T09:50:25.091Z,1.30
2022-09-03T09:55:28.894Z,1.20
2022-09-03T10:00:34.157Z,1.10
2022-09-03T10:05:40.421Z,1.30
2022-09-03T10:10:49.698Z,1.20
2022-09-03T10:21:11.816Z,1.48
2022-09-03T10:26:18.310Z,1.00
2022-09-03T10:32:02.416Z,1.30
2022-09-03T10:37:18.375Z,1.15
2022-09-03T10:42:41.306Z,1.50
2022-09-03T10:48:39.182Z,1.55
2022-09-03T10:53:54.203Z,1.05
2022-09-03T10:59:07.591Z,1.38
2022-09-03T11:04:51.760Z,1.20
2022-09-03T11:10:20.782Z,1.58
2022-09-03T11:15:34.713Z,1.50
2022-09-03T11:20:37.979Z,1.27
2022-09-03T11:25:49.599Z,1.25
2022-09-03T11:31:28.653Z,1.38
2022-09-03T11:36:42.725Z,1.17
2022-09-03T11:42:10.043Z,1.52
2022-09-03T11:47:23.536Z,1.48
2022-09-03T11:52:32.172Z,1.40
2022-09-03T11:57:43.678Z,1.77
2022-09-03T12:02:59.089Z,1.35
2022-09-03T12:08:27.011Z,1.42
2022-09-03T12:13:51.630Z,1.52
2022-09-03T12:19:00.315Z,1.30
2022-09-03T12:24:02.939Z,1.23
2022-09-03T12:29:06.154Z,1.80
2022-09-03T12:34:16.862Z,1.73
2022-09-03T12:44:48.028Z,1.77
2022-09-03T12:49:52.456Z,1.40
2022-09-03T12:55:08.863Z,1.50
2022-09-03T13:00:15.233Z,1.45
2022-09-03T13:05:25.705Z,1.60
2022-09-03T13:10:29.223Z,1.23
2022-09-03T13:15:31.155Z,1.50
2022-09-03T13:21:01.962Z,1.15
2022-09-03T13:26:42.012Z,1.48
2022-09-03T13:31:50.665Z,1.40
2022-09-03T13:37:04.096Z,1.03
2022-09-03T13:42:13.289Z,1.95
2022-09-03T13:47:17.994Z,1.52
2022-09-03T13:52:49.298Z,1.30
2022-09-03T13:58:01.576Z,1.48
2022-09-03T14:03:15.491Z,1.30
2022-09-03T14:08:32.393Z,1.30
2022-09-03T14:13:36.651Z,1.13
2022-09-03T14:18:54.381Z,1.30
2022-09-03T14:24:17.157Z,1.17
2022-09-03T14:29:21.630Z,1.50
2022-09-03T14:34:52.205Z,1.48
2022-09-03T14:39:56.261Z,1.50
2022-09-03T14:45:27.139Z,1.50
2022-09-03T14:51:03.922Z,1.70
2022-09-03T14:56:26.597Z,1.52
2022-09-03T15:01:38.610Z,2.00
2022-09-03T15:07:17.692Z,1.70
2022-09-03T15:12:28.801Z,1.75
2022-09-03T15:18:03.490Z,1.70
2022-09-03T15:23:25.067Z,1.38
2022-09-03T15:28:44.675Z,1.23
2022-09-03T15:34:01.854Z,2.20
2022-09-03T15:39:16.328Z,1.70
2022-09-03T15:44:20.095Z,1.73
2022-09-03T15:49:29.379Z,1.80
2022-09-03T15:55:03.079Z,1.50
2022-09-03T16:00:12.261Z,1.67
2022-09-03T16:05:21.058Z,2.03
2022-09-03T16:10:36.487Z,1.83
2022-09-03T16:15:47.052Z,1.90
2022-09-03T16:20:57.112Z,1.90
2022-09-03T16:26:09.899Z,1.83
2022-09-03T16:31:31.669Z,1.75
2022-09-03T16:36:46.598Z,1.70
2022-09-03T16:42:12.387Z,1.85
2022-09-03T16:47:39.420Z,1.92
2022-09-03T16:52:59.564Z,1.40
2022-09-03T16:58:35.247Z,1.77
2022-09-03T17:03:36.804Z,1.58
2022-09-03T17:08:58.331Z,2.00
2022-09-03T17:14:05.940Z,1.80
2022-09-03T17:19:33.876Z,1.63
2022-09-03T17:24:54.518Z,1.60
2022-09-03T17:30:04.779Z,1.20
2022-09-03T17:35:14.803Z,1.45
2022-09-03T17:40:58.548Z,1.42
2022-09-03T17:46:15.300Z,1.35
2022-09-03T17:51:48.164Z,1.20
2022-09-03T17:57:10.450Z,1.80
2022-09-03T18:02:15.425Z,1.70
2022-09-03T18:07:27.886Z,1.70
2022-09-03T18:13:01.404Z,1.70
2022-09-03T18:18:13.352Z,2.00
2022-09-03T18:23:49.306Z,2.15
2022-09-03T18:29:17.525Z,1.95
2022-09-03T18:34:41.976Z,1.40
2022-09-03T18:40:05.286Z,1.30
2022-09-03T18:46:28.054Z,1.23
2022-09-03T18:51:45.300Z,1.23
2022-09-03T18:57:06.970Z,1.40
2022-09-03T19:02:42.033Z,1.30
2022-09-03T19:08:18.887Z,1.63
2022-09-03T19:13:45.106Z,1.50
2022-09-03T19:19:20.355Z,1.38
2022-09-03T19:24:47.080Z,1.20
2022-09-03T19:30:30.274Z,1.65
2022-09-03T19:36:04.643Z,1.25
2022-09-03T19:41:40.199Z,1.33
2022-09-03T19:47:17.745Z,1.45
2022-09-03T19:52:57.356Z,1.80
2022-09-03T19:58:41.563Z,1.35
2022-09-03T20:04:01.602Z,1.50
2022-09-03T20:09:31.629Z,1.52
2022-09-03T20:14:36.504Z,1.70
2022-09-03T20:19:55.066Z,1.45
2022-09-03T20:24:59.112Z,1.50
2022-09-03T20:30:04.248Z,1.50
2022-09-03T20:35:18.814Z,1.60
2022-09-03T20:40:29.885Z,1.88
2022-09-03T20:46:09.115Z,1.58
2022-09-03T20:51:21.070Z,1.98
2022-09-03T20:56:31.159Z,2.00
2022-09-03T21:02:18.574Z,2.15
2022-09-03T21:07:37.366Z,1.98
2022-09-03T21:13:03.009Z,2.15
2022-09-03T21:18:38.894Z,2.22
2022-09-03T21:23:46.102Z,1.92
2022-09-03T21:29:03.871Z,1.92
2022-09-03T21:34:12.534Z,1.70
2022-09-03T21:39:25.643Z,2.20
2022-09-03T21:44:47.082Z,2.10
2022-09-03T21:49:54.957Z,2.00
2022-09-03T21:54:57.361Z,2.27
2022-09-03T22:00:11.340Z,2.13
2022-09-03T22:05:18.363Z,2.03
2022-09-03T22:10:21.008Z,2.25
2022-09-03T22:15:24.216Z,2.30
2022-09-03T22:20:27.743Z,2.30
2022-09-03T22:25:32.902Z,2.33
2022-09-03T22:30:46.669Z,2.25
2022-09-03T22:36:00.276Z,2.25
2022-09-03T22:41:39.736Z,2.78
2022-09-03T22:47:18.461Z,2.70
2022-09-03T22:52:45.418Z,2.83
2022-09-03T22:58:03.291Z,3.03
2022-09-03T23:03:11.783Z,3.15
2022-09-03T23:08:32.682Z,2.92
2022-09-03T23:13:42.174Z,2.83
2022-09-03T23:18:46.823Z,2.88
2022-09-03T23:24:03.084Z,3.35
2022-09-03T23:29:20.752Z,3.35
2022-09-03T23:34:23.047Z,3.83
2022-09-03T23:39:42.563Z,3.80
2022-09-03T23:44:52.299Z,3.67
2022-09-03T23:55:46.652Z,3.90
